createdAt,value
2023-04-22T00:01:19.552Z,2.23
2023-04-22T00:03:48.064Z,2.40
2023-04-22T00:06:16.866Z,2.20
2023-04-22T00:08:45.330Z,2.20
2023-04-22T00:11:13.824Z,2.40
2023-04-22T00:13:43.950Z,2.00
2023-04-22T00:16:12.445Z,2.23
2023-04-22T00:18:40.942Z,2.23
2023-04-22T00:21:09.454Z,2.20
2023-04-22T00:23:38.089Z,1.73
2023-04-22T00:26:06.641Z,2.13
2023-04-22T00:28:35.154Z,2.43
2023-04-22T00:31:05.123Z,2.30
2023-04-22T00:33:33.626Z,2.30
2023-04-22T00:36:02.097Z,2.03
2023-04-22T00:38:30.587Z,2.10
2023-04-22T00:40:59.377Z,2.27
2023-04-22T00:43:27.800Z,2.00
2023-04-22T00:45:56.282Z,1.90
2023-04-22T00:48:28.784Z,1.70
2023-04-22T00:50:57.451Z,1.93
2023-04-22T00:53:25.947Z,2.47
2023-04-22T00:55:54.411Z,1.97
2023-04-22T00:58:23.115Z,1.90
2023-04-22T01:00:51.542Z,2.20
2023-04-22T01:03:22.343Z,1.97
2023-04-22T01:05:52.645Z,2.20
2023-04-22T01:08:21.219Z,1.70
2023-04-22T01:10:49.618Z,1.90
2023-04-22T01:13:18.075Z,1.87
2023-04-22T01:15:46.486Z,2.33
2023-04-22T01:18:15.159Z,1.70
2023-04-22T01:20:43.629Z,1.77
2023-04-22T01:23:16.443Z,2.10
2023-04-22T01:25:45.525Z,2.43
2023-04-22T01:28:13.951Z,1.80
2023-04-22T01:30:42.937Z,1.93
2023-04-22T01:33:11.758Z,1.93
2023-04-22T01:35:41.417Z,2.20
2023-04-22T01:38:10.692Z,2.27
2023-04-22T01:40:41.097Z,2.30
2023-04-22T01:43:09.503Z,2.30
2023-04-22T01:45:38.537Z,2.10
2023-04-22T01:48:07.973Z,2.03
2023-04-22T01:50:36.724Z,2.50
2023-04-22T01:53:05.176Z,1.83
2023-04-22T01:55:36.078Z,1.50
2023-04-22T01:58:06.554Z,1.43
2023-04-22T02:00:35.040Z,2.20
2023-04-22T02:03:03.517Z,2.20
2023-04-22T02:05:32.099Z,2.33
2023-04-22T02:08:00.558Z,2.00
2023-04-22T02:10:29.077Z,2.40
2023-04-22T02:12:57.504Z,2.13
2023-04-22T02:15:27.347Z,2.07
2023-04-22T02:17:55.791Z,2.10
2023-04-22T02:20:24.309Z,2.60
2023-04-22T02:22:52.915Z,2.27
2023-04-22T02:25:21.543Z,2.80
2023-04-22T02:27:49.938Z,2.60
2023-04-22T02:30:18.431Z,2.20
2023-04-22T02:32:48.293Z,2.40
2023-04-22T02:35:16.775Z,2.73
2023-04-22T02:37:45.182Z,2.93
2023-04-22T02:40:13.966Z,2.30
2023-04-22T02:42:42.411Z,2.37
2023-04-22T02:45:11.197Z,2.40
2023-04-22T02:47:39.650Z,2.40
2023-04-22T02:50:10.690Z,2.33
2023-04-22T02:52:39.128Z,2.43
2023-04-22T02:55:07.958Z,1.93
2023-04-22T02:57:36.530Z,1.80
2023-04-22T03:00:05.423Z,2.03
2023-04-22T03:02:34.029Z,2.60
2023-04-22T03:05:02.796Z,2.30
2023-04-22T03:07:32.734Z,2.10
2023-04-22T03:10:01.178Z,2.00
2023-04-22T03:12:29.648Z,3.00
2023-04-22T03:14:58.146Z,2.63
2023-04-22T03:17:28.067Z,2.70
2023-04-22T03:19:56.648Z,2.57
2023-04-22T03:22:25.110Z,2.40
2023-04-22T03:24:54.936Z,2.70
2023-04-22T03:27:23.320Z,2.67
2023-04-22T03:29:51.808Z,2.70
2023-04-22T03:32:20.351Z,2.40
2023-04-22T03:34:48.814Z,2.63
2023-04-22T03:37:17.660Z,2.47
2023-04-22T03:39:46.112Z,2.70
2023-04-22T03:42:16.351Z,3.00
2023-04-22T03:44:44.778Z,2.63
2023-04-22T03:47:13.129Z,2.53
2023-04-22T03:49:42.158Z,2.77
2023-04-22T03:52:10.765Z,2.73
2023-04-22T03:54:39.282Z,2.93
2023-04-22T03:57:07.673Z,2.43
2023-04-22T03:59:37.903Z,2.30
2023-04-22T04:02:07.613Z,2.47
2023-04-22T04:04:36.709Z,2.23
2023-04-22T04:07:05.599Z,2.30
2023-04-22T04:09:34.055Z,2.20
2023-04-22T04:12:03.324Z,1.97
2023-04-22T04:14:31.757Z,2.20
2023-04-22T04:17:01.546Z,3.30
2023-04-22T04:19:30.019Z,3.23
2023-04-22T04:21:58.508Z,3.10
2023-04-22T04:24:26.996Z,2.80
2023-04-22T04:26:55.545Z,2.37
2023-04-22T04:29:23.940Z,2.50
2023-04-22T04:31:52.384Z,2.23
2023-04-22T04:34:22.953Z,2.17
2023-04-22T04:36:51.373Z,2.10
2023-04-22T04:39:20.500Z,3.00
2023-04-22T04:41:49.945Z,2.50
2023-04-22T04:44:18.399Z,2.60
2023-04-22T04:46:47.348Z,3.00
2023-04-22T04:49:16.080Z,2.83
2023-04-22T04:51:45.956Z,3.07
2023-04-22T04:54:14.511Z,2.57
2023-04-22T04:56:42.911Z,3.00
2023-04-22T04:59:11.328Z,3.10
2023-04-22T05:01:40.518Z,3.47
2023-04-22T05:04:09.328Z,2.77
2023-04-22T05:06:37.942Z,3.27
2023-04-22T05:11:36.272Z,2.93
2023-04-22T05:14:04.909Z,3.17
2023-04-22T05:16:33.350Z,3.23
2023-04-22T05:19:01.858Z,2.70
2023-04-22T05:21:31.476Z,2.50
2023-04-22T05:23:59.896Z,2.63
2023-04-22T05:26:28.353Z,3.47
2023-04-22T05:28:58.205Z,3.17
2023-04-22T05:31:26.714Z,2.30
2023-04-22T05:33:55.266Z,2.70
2023-04-22T05:36:23.703Z,2.87
2023-04-22T05:38:52.199Z,2.77
2023-04-22T05:41:20.675Z,3.10
2023-04-22T05:43:49.123Z,2.50
2023-04-22T05:46:18.989Z,3.20
2023-04-22T05:48:48.829Z,5.20
2023-04-22T05:51:17.349Z,3.20
2023-04-22T05:53:45.759Z,2.93
2023-04-22T05:56:14.257Z,3.43
2023-04-22T05:58:42.757Z,4.17
2023-04-22T06:01:11.213Z,4.20
2023-04-22T06:03:41.267Z,4.00
2023-04-22T06:06:10.089Z,4.13
2023-04-22T06:08:38.591Z,4.53
2023-04-22T06:11:07.132Z,5.10
2023-04-22T06:13:35.581Z,4.07
2023-04-22T06:16:05.226Z,4.43
2023-04-22T06:18:37.857Z,4.83
2023-04-22T06:21:08.279Z,4.57
2023-04-22T06:23:36.738Z,5.10
2023-04-22T06:26:05.402Z,5.10
2023-04-22T06:28:33.837Z,4.33
2023-04-22T06:31:03.442Z,4.50
2023-04-22T06:33:31.931Z,4.10
2023-04-22T06:36:00.880Z,4.00
2023-04-22T06:38:30.786Z,4.47
2023-04-22T06:40:59.198Z,4.07
2023-04-22T06:43:27.699Z,4.70
2023-04-22T06:45:56.154Z,4.30
2023-04-22T06:48:24.596Z,4.83
2023-04-22T06:50:53.029Z,4.87
2023-04-22T06:53:21.427Z,4.33
2023-04-22T06:55:51.306Z,3.90
2023-04-22T06:58:19.749Z,4.83
2023-04-22T07:00:48.207Z,4.10
2023-04-22T07:03:16.770Z,4.20
2023-04-22T07:05:45.265Z,4.23
2023-04-22T07:08:13.752Z,4.63
2023-04-22T07:10:42.189Z,3.27
2023-04-22T07:13:12.013Z,3.40
2023-04-22T07:15:40.846Z,3.10
2023-04-22T07:18:09.376Z,3.03
2023-04-22T07:20:37.836Z,2.63
2023-04-22T07:23:06.537Z,2.70
2023-04-22T07:25:34.907Z,3.80
2023-04-22T07:28:03.284Z,3.40
2023-04-22T07:30:32.991Z,4.20
2023-04-22T07:33:01.332Z,3.60
2023-04-22T07:35:29.926Z,3.30
2023-04-22T07:37:58.323Z,2.13
2023-04-22T07:40:26.675Z,2.73
2023-04-22T07:42:54.986Z,3.00
2023-04-22T07:45:23.393Z,3.20
2023-04-22T07:47:53.269Z,2.40
2023-04-22T07:50:21.841Z,2.60
2023-04-22T07:52:50.290Z,3.27
2023-04-22T07:55:18.784Z,3.00
2023-04-22T07:57:47.282Z,2.80
2023-04-22T08:00:16.332Z,2.70
2023-04-22T08:02:46.443Z,2.60
2023-04-22T08:05:16.399Z,3.00
2023-04-22T08:07:44.884Z,3.57
2023-04-22T08:10:13.353Z,2.90
2023-04-22T08:12:41.794Z,2.93
2023-04-22T08:15:10.533Z,2.37
2023-04-22T08:17:39.055Z,2.47
2023-04-22T08:20:08.397Z,2.70
2023-04-22T08:22:38.835Z,2.40
2023-04-22T08:25:08.541Z,2.97
2023-04-22T08:27:37.312Z,2.63
2023-04-22T08:30:06.340Z,2.53
2023-04-22T08:32:34.938Z,2.50
2023-04-22T08:35:05.463Z,2.00
2023-04-22T08:37:34.243Z,2.07
2023-04-22T08:40:04.950Z,2.23
2023-04-22T08:42:33.521Z,2.03
2023-04-22T08:45:02.077Z,2.33
2023-04-22T08:47:30.838Z,2.43
2023-04-22T08:50:00.778Z,2.20
2023-04-22T08:52:29.352Z,1.80
2023-04-22T08:54:58.013Z,2.23
2023-04-22T08:57:27.913Z,1.90
2023-04-22T08:59:56.913Z,2.13
2023-04-22T09:02:26.083Z,1.90
2023-04-22T09:04:54.931Z,2.00
2023-04-22T09:07:25.231Z,2.17
2023-04-22T09:09:54.481Z,2.37
2023-04-22T09:12:22.932Z,1.87
2023-04-22T09:14:52.921Z,2.03
2023-04-22T09:17:31.415Z,1.50
2023-04-22T09:20:00.359Z,1.80
2023-04-22T09:22:29.503Z,1.60
2023-04-22T09:24:57.974Z,1.37
2023-04-22T09:27:27.021Z,1.20
2023-04-22T09:29:56.784Z,1.60
2023-04-22T09:32:26.740Z,2.27
2023-04-22T09:34:57.594Z,1.60
2023-04-22T09:37:33.232Z,2.23
2023-04-22T09:40:11.433Z,1.53
2023-04-22T09:42:49.747Z,1.57
2023-04-22T09:45:28.242Z,1.40
2023-04-22T09:47:57.674Z,2.13
2023-04-22T09:50:27.393Z,1.40
2023-04-22T09:52:56.557Z,1.30
2023-04-22T09:55:25.782Z,1.30
2023-04-22T09:57:55.048Z,1.77
2023-04-22T10:00:24.855Z,1.30
2023-04-22T10:02:54.837Z,1.50
2023-04-22T10:05:24.212Z,1.33
2023-04-22T10:07:53.124Z,1.30
2023-04-22T10:10:21.842Z,1.40
2023-04-22T10:12:50.314Z,1.30
2023-04-22T10:15:18.711Z,0.93
2023-04-22T10:17:47.776Z,1.30
2023-04-22T10:20:19.133Z,1.00
2023-04-22T10:22:47.829Z,1.60
2023-04-22T10:25:23.053Z,1.40
2023-04-22T10:27:55.291Z,1.30
2023-04-22T10:30:30.305Z,1.33
2023-04-22T10:32:59.348Z,1.33
2023-04-22T10:35:32.438Z,1.73
2023-04-22T10:38:01.134Z,1.30
2023-04-22T10:40:29.582Z,1.50
2023-04-22T10:43:03.624Z,1.43
2023-04-22T10:45:34.303Z,1.63
2023-04-22T10:48:05.467Z,1.80
2023-04-22T10:50:35.402Z,2.50
2023-04-22T10:53:24.323Z,1.60
2023-04-22T10:55:53.274Z,1.57
2023-04-22T10:58:22.107Z,1.40
2023-04-22T11:00:54.565Z,1.33
2023-04-22T11:03:28.250Z,1.00
2023-04-22T11:06:17.081Z,1.43
2023-04-22T11:08:48.797Z,1.10
2023-04-22T11:11:19.172Z,1.70
2023-04-22T11:13:50.556Z,1.53
2023-04-22T11:16:20.537Z,1.20
2023-04-22T11:18:50.217Z,1.00
2023-04-22T11:21:20.128Z,1.40
2023-04-22T11:23:52.252Z,1.30
2023-04-22T11:26:20.847Z,1.70
2023-04-22T11:28:49.560Z,1.37
2023-04-22T11:31:18.201Z,1.83
2023-04-22T11:33:49.797Z,1.30
2023-04-22T11:36:21.942Z,1.73
2023-04-22T11:38:57.033Z,2.10
2023-04-22T11:41:25.526Z,2.00
2023-04-22T11:43:54.930Z,1.60
2023-04-22T11:46:30.159Z,1.77
2023-04-22T11:49:12.835Z,1.23
2023-04-22T11:51:54.798Z,1.60
2023-04-22T11:54:31.733Z,2.20
2023-04-22T11:57:01.999Z,1.80
2023-04-22T11:59:30.498Z,1.80
2023-04-22T12:01:59.086Z,1.70
2023-04-22T12:04:27.502Z,1.60
2023-04-22T12:06:57.303Z,1.50
2023-04-22T12:09:26.813Z,1.60
2023-04-22T12:11:55.267Z,1.30
2023-04-22T12:14:23.880Z,2.00
2023-04-22T12:16:52.449Z,1.70
2023-04-22T12:19:26.689Z,1.63
2023-04-22T12:21:58.444Z,1.53
2023-04-22T12:24:29.457Z,1.77
2023-04-22T12:26:58.606Z,1.60
2023-04-22T12:29:32.791Z,1.60
2023-04-22T12:32:01.242Z,2.33
2023-04-22T12:34:29.703Z,1.13
2023-04-22T12:36:59.522Z,1.80
2023-04-22T12:39:28.054Z,1.33
2023-04-22T12:41:57.785Z,1.90
2023-04-22T12:44:26.251Z,1.30
2023-04-22T12:46:54.750Z,1.80
2023-04-22T12:49:23.241Z,1.60
2023-04-22T12:51:52.187Z,1.70
2023-04-22T12:54:22.321Z,1.80
2023-04-22T12:56:50.781Z,1.90
2023-04-22T12:59:19.212Z,2.00
2023-04-22T13:01:47.680Z,1.70
2023-04-22T13:04:16.214Z,2.00
2023-04-22T13:06:44.720Z,1.43
2023-04-22T13:09:13.230Z,1.70
2023-04-22T13:11:43.024Z,1.90
2023-04-22T13:14:11.805Z,1.50
2023-04-22T13:16:40.504Z,1.40
2023-04-22T13:19:09.131Z,1.77
2023-04-22T13:21:37.579Z,1.30
2023-04-22T13:24:06.118Z,1.73
2023-04-22T13:26:34.644Z,1.57
2023-04-22T13:29:04.708Z,1.67
2023-04-22T13:31:33.147Z,1.70
2023-04-22T13:34:01.650Z,1.43
2023-04-22T13:36:30.301Z,1.40
2023-04-22T13:38:59.413Z,1.53
2023-04-22T13:41:27.886Z,1.37
2023-04-22T13:43:56.448Z,1.80
2023-04-22T13:46:27.147Z,1.70
2023-04-22T13:48:56.709Z,1.90
2023-04-22T13:51:25.241Z,1.90
2023-04-22T13:53:53.672Z,2.10
2023-04-22T13:56:22.123Z,1.93
2023-04-22T13:58:50.979Z,2.57
2023-04-22T14:01:19.513Z,1.70
2023-04-22T14:03:50.246Z,1.70
2023-04-22T14:06:18.859Z,2.00
2023-04-22T14:08:47.331Z,1.70
2023-04-22T14:11:15.786Z,1.63
2023-04-22T14:13:45.203Z,1.60
2023-04-22T14:16:13.735Z,2.07
2023-04-22T14:18:42.722Z,1.90
2023-04-22T14:21:12.580Z,2.10
2023-04-22T14:23:42.133Z,1.60
2023-04-22T14:26:12.845Z,1.90
2023-04-22T14:28:42.205Z,1.57
2023-04-22T14:31:11.023Z,2.10
2023-04-22T14:33:39.661Z,1.73
2023-04-22T14:36:08.607Z,2.60
2023-04-22T14:38:38.489Z,2.47
2023-04-22T14:41:07.065Z,1.73
2023-04-22T14:43:36.111Z,1.60
2023-04-22T14:46:04.601Z,1.73
2023-04-22T14:48:35.400Z,1.53
2023-04-22T14:51:04.153Z,1.67
2023-04-22T14:53:34.210Z,1.70
2023-04-22T14:56:04.221Z,1.80
2023-04-22T14:58:32.613Z,1.50
2023-04-22T15:01:01.231Z,1.83
2023-04-22T15:03:30.064Z,1.90
2023-04-22T15:05:59.019Z,1.53
2023-04-22T15:08:27.488Z,1.77
2023-04-22T15:10:56.021Z,1.87
2023-04-22T15:13:25.931Z,2.07
2023-04-22T15:15:54.509Z,1.60
2023-04-22T15:18:23.139Z,2.13
2023-04-22T15:20:51.629Z,1.83
2023-04-22T15:23:20.077Z,1.80
2023-04-22T15:25:48.560Z,2.00
2023-04-22T15:28:17.080Z,2.03
2023-04-22T15:30:48.684Z,1.53
2023-04-22T15:33:17.154Z,2.30
2023-04-22T15:35:47.697Z,2.13
2023-04-22T15:38:16.625Z,1.97
2023-04-22T15:40:45.051Z,1.50
2023-04-22T15:43:13.577Z,2.20
2023-04-22T15:45:42.024Z,1.57
2023-04-22T15:48:11.876Z,1.73
2023-04-22T15:50:40.816Z,2.20
2023-04-22T15:53:09.304Z,2.40
2023-04-22T15:55:38.040Z,1.80
2023-04-22T15:58:06.522Z,1.97
2023-04-22T16:00:35.103Z,2.07
2023-04-22T16:03:03.748Z,1.87
2023-04-22T16:05:34.776Z,1.83
2023-04-22T16:08:03.622Z,1.87
2023-04-22T16:10:32.094Z,1.90
2023-04-22T16:13:00.522Z,2.27
2023-04-22T16:15:28.963Z,1.87
2023-04-22T16:17:57.500Z,1.83
2023-04-22T16:20:26.216Z,1.83
2023-04-22T16:22:56.075Z,1.87
2023-04-22T16:25:24.540Z,1.97
2023-04-22T16:27:54.213Z,1.80
2023-04-22T16:30:22.741Z,1.97
2023-04-22T16:32:51.393Z,1.87
2023-04-22T16:35:19.894Z,1.87
2023-04-22T16:37:48.489Z,1.87
2023-04-22T16:40:18.274Z,1.93
2023-04-22T16:42:46.848Z,1.70
2023-04-22T16:45:15.326Z,2.03
2023-04-22T16:47:43.801Z,1.97
2023-04-22T16:50:13.545Z,2.23
2023-04-22T16:52:42.073Z,1.73
2023-04-22T16:55:10.702Z,1.77
2023-04-22T16:57:40.522Z,2.00
2023-04-22T17:00:09.997Z,1.90
2023-04-22T17:02:38.677Z,1.53
2023-04-22T17:05:07.675Z,2.03
2023-04-22T17:07:36.288Z,2.27
2023-04-22T17:10:04.881Z,1.80
2023-04-22T17:12:33.438Z,2.03
2023-04-22T17:15:03.990Z,2.10
2023-04-22T17:17:32.548Z,2.07
2023-04-22T17:20:01.091Z,1.90
2023-04-22T17:22:29.630Z,1.97
2023-04-22T17:24:58.896Z,1.73
2023-04-22T17:27:27.379Z,1.70
2023-04-22T17:29:56.207Z,2.40
2023-04-22T17:32:26.177Z,1.77
2023-04-22T17:34:55.078Z,1.87
2023-04-22T17:37:23.563Z,2.37
2023-04-22T17:39:52.006Z,2.13
2023-04-22T17:42:20.522Z,1.90
2023-04-22T17:44:49.877Z,2.43
2023-04-22T17:47:18.410Z,1.50
2023-04-22T17:49:48.266Z,2.10
2023-04-22T17:52:17.356Z,2.63
2023-04-22T17:54:45.839Z,2.27
2023-04-22T17:57:14.290Z,2.10
2023-04-22T17:59:42.832Z,2.63
2023-04-22T18:02:12.486Z,2.47
2023-04-22T18:04:41.304Z,2.60
2023-04-22T18:07:11.105Z,2.40
2023-04-22T18:09:39.722Z,1.90
2023-04-22T18:12:08.367Z,2.73
2023-04-22T18:14:36.886Z,1.80
2023-04-22T18:17:05.427Z,2.20
2023-04-22T18:19:33.920Z,2.37
2023-04-22T18:22:02.474Z,1.87
2023-04-22T18:24:32.395Z,2.63
2023-04-22T18:27:00.927Z,2.90
2023-04-22T18:29:29.403Z,3.40
2023-04-22T18:31:58.392Z,2.47
2023-04-22T18:34:28.470Z,3.40
2023-04-22T18:36:57.169Z,3.53
2023-04-22T18:39:25.717Z,2.43
2023-04-22T18:41:55.593Z,2.67
2023-04-22T18:44:24.072Z,3.03
2023-04-22T18:46:54.793Z,2.43
2023-04-22T18:49:23.259Z,1.90
2023-04-22T18:51:51.741Z,3.33
2023-04-22T18:54:20.235Z,2.60
2023-04-22T18:56:48.723Z,2.20
2023-04-22T18:59:18.594Z,2.27
2023-04-22T19:01:47.263Z,3.07
2023-04-22T19:04:15.933Z,2.70
2023-04-22T19:06:44.969Z,2.40
2023-04-22T19:09:13.439Z,3.40
2023-04-22T19:11:41.912Z,2.60
2023-04-22T19:14:10.651Z,3.03
2023-04-22T19:16:40.545Z,3.07
2023-04-22T19:19:09.065Z,2.57
2023-04-22T19:21:37.524Z,2.20
2023-04-22T19:24:06.446Z,2.70
2023-04-22T19:26:35.151Z,2.30
2023-04-22T19:29:03.681Z,2.77
2023-04-22T19:31:32.303Z,2.80
2023-04-22T19:34:02.813Z,2.10
2023-04-22T19:36:31.795Z,2.50
2023-04-22T19:39:00.259Z,2.40
2023-04-22T19:41:28.738Z,3.83
2023-04-22T19:43:59.040Z,2.60
2023-04-22T19:46:27.651Z,2.60
2023-04-22T19:48:56.657Z,2.87
2023-04-22T19:51:27.182Z,3.30
2023-04-22T19:53:57.385Z,4.53
2023-04-22T19:56:26.283Z,4.30
2023-04-22T19:58:54.909Z,2.23
2023-04-22T20:01:23.623Z,2.43
2023-04-22T20:03:52.960Z,2.40
2023-04-22T20:06:23.285Z,7.80
2023-04-22T20:08:54.354Z,6.10
2023-04-22T20:11:25.870Z,4.80
2023-04-22T20:13:54.632Z,7.27
2023-04-22T20:16:24.174Z,7.00
2023-04-22T20:18:52.763Z,5.87
2023-04-22T20:21:21.680Z,5.83
2023-04-22T20:23:51.824Z,3.27
2023-04-22T20:26:22.416Z,2.97
2023-04-22T20:28:52.079Z,4.03
2023-04-22T20:31:22.827Z,3.43
2023-04-22T20:33:51.594Z,3.13
2023-04-22T20:36:22.521Z,3.67
2023-04-22T20:38:52.228Z,4.00
2023-04-22T20:41:22.716Z,3.50
2023-04-22T20:43:51.216Z,2.93
2023-04-22T20:46:22.709Z,3.13
2023-04-22T20:48:51.650Z,3.00
2023-04-22T20:51:20.147Z,3.20
2023-04-22T20:53:48.707Z,3.60
2023-04-22T20:56:17.230Z,3.93
2023-04-22T20:58:48.111Z,3.00
2023-04-22T21:01:17.322Z,2.90
2023-04-22T21:03:49.185Z,2.53
2023-04-22T21:06:17.811Z,2.53
2023-04-22T21:08:46.498Z,2.97
2023-04-22T21:11:15.219Z,2.80
2023-04-22T21:13:44.916Z,4.00
2023-04-22T21:16:15.776Z,2.83
2023-04-22T21:18:45.901Z,2.60
2023-04-22T21:21:15.665Z,2.07
2023-04-22T21:23:44.471Z,2.80
2023-04-22T21:26:13.052Z,2.73
2023-04-22T21:28:41.804Z,3.30
2023-04-22T21:31:11.879Z,4.17
2023-04-22T21:33:41.833Z,3.60
2023-04-22T21:36:10.345Z,3.37
2023-04-22T21:38:38.817Z,2.93
2023-04-22T21:41:07.454Z,2.77
2023-04-22T21:43:35.986Z,3.30
2023-04-22T21:46:04.512Z,2.33
2023-04-22T21:48:32.946Z,2.83
2023-04-22T21:51:02.942Z,2.70
2023-04-22T21:53:31.400Z,2.93
2023-04-22T21:55:59.933Z,3.00
2023-04-22T21:58:28.418Z,2.40
2023-04-22T22:00:57.071Z,3.03
2023-04-22T22:03:25.763Z,2.20
2023-04-22T22:05:54.486Z,3.00
2023-04-22T22:08:24.392Z,2.53
2023-04-22T22:10:52.836Z,2.30
2023-04-22T22:13:21.358Z,2.87
2023-04-22T22:15:49.881Z,3.40
2023-04-22T22:18:18.730Z,2.47
2023-04-22T22:20:47.283Z,4.60
2023-04-22T22:23:15.784Z,2.90
2023-04-22T22:25:45.661Z,3.23
2023-04-22T22:28:14.033Z,3.47
2023-04-22T22:30:42.546Z,3.20
2023-04-22T22:33:11.516Z,3.43
2023-04-22T22:35:40.287Z,2.73
2023-04-22T22:38:08.738Z,2.90
2023-04-22T22:40:37.216Z,3.10
2023-04-22T22:43:07.033Z,2.57
2023-04-22T22:45:35.542Z,4.13
2023-04-22T22:48:04.315Z,3.57
2023-04-22T22:50:32.771Z,4.00
2023-04-22T22:53:01.613Z,4.10
2023-04-22T22:55:30.078Z,3.37
2023-04-22T22:57:58.498Z,3.50
2023-04-22T23:00:28.346Z,3.17
2023-04-22T23:02:57.095Z,3.47
2023-04-22T23:05:25.646Z,3.03
2023-04-22T23:07:54.113Z,2.53
2023-04-22T23:10:22.749Z,2.63
2023-04-22T23:12:51.258Z,3.53
2023-04-22T23:15:19.770Z,2.80
2023-04-22T23:17:51.524Z,2.80
2023-04-22T23:20:20.017Z,2.43
2023-04-22T23:22:51.479Z,3.10
2023-04-22T23:25:20.070Z,3.00
2023-04-22T23:27:49.720Z,3.50
2023-04-22T23:30:18.566Z,3.10
2023-04-22T23:32:47.745Z,3.67
2023-04-22T23:35:17.867Z,2.43
2023-04-22T23:37:46.526Z,2.70
2023-04-22T23:40:15.433Z,2.80
2023-04-22T23:42:43.844Z,2.30
2023-04-22T23:45:13.391Z,2.80
2023-04-22T23:47:42.172Z,2.70
2023-04-22T23:50:10.971Z,2.27
2023-04-22T23:52:42.691Z,2.60
2023-04-22T23:55:11.904Z,2.10
2023-04-22T23:57:40.534Z,2.57
